KLQK

Pickens County Airport

Pickens, South Carolina, USA
METAR KLQK 192015Z AUTO 25006KT 10SM CLR 20/09 A3018 RMK AO2 T01960091
Observed Flight Rules
Oct-19 @ 20:15 UTC (29 minutes ago) Visual Flight Rules
Wind Visibility Clouds
250° at 6 knots 10 miles
  • Clear skies
Temperatures Readings
Current 20°C / 68°F
Dewpoint 9°C / 48°F
Humidity 49%
Altimeter 30.18" Hg
Pressure 1022 hPa
Elevation 309
METAR KLQK 192015Z AUTO 25006KT 10SM CLR 20/09 A3018 RMK AO2 T01960091
Observed Flight Rules
Oct-19 @ 20:15 UTC
(29 minutes ago)
VFR
Wind Visibility
250° at 6 knots 10 miles
Clouds
  • Clear skies
Temperature Dewpoint
20°C / 68°F 9°C / 48°F
Humidity Altimeter Pressure
49% 30.18" Hg 1022 hPa